sensor_id;sensor_type;location;lat;lon;timestamp;temperature;humidity
64833;HTU21D;51290;45.060;38.948;2023-08-30T00:00:41;19.41;29.87
64833;HTU21D;51290;45.060;38.948;2023-08-30T00:03:07;19.40;29.90
64833;HTU21D;51290;45.060;38.948;2023-08-30T00:05:34;19.38;29.98
64833;HTU21D;51290;45.060;38.948;2023-08-30T00:07:59;19.36;30.04
64833;HTU21D;51290;45.060;38.948;2023-08-30T00:10:25;19.36;30.13
64833;HTU21D;51290;45.060;38.948;2023-08-30T00:12:51;19.31;30.18
64833;HTU21D;51290;45.060;38.948;2023-08-30T00:15:17;19.27;30.25
64833;HTU21D;51290;45.060;38.948;2023-08-30T00:17:43;19.24;30.36
64833;HTU21D;51290;45.060;38.948;2023-08-30T00:20:09;19.22;30.42
64833;HTU21D;51290;45.060;38.948;2023-08-30T00:22:35;19.17;30.48
64833;HTU21D;51290;45.060;38.948;2023-08-30T00:25:02;19.14;30.56
64833;HTU21D;51290;45.060;38.948;2023-08-30T00:27:28;19.12;30.64
64833;HTU21D;51290;45.060;38.948;2023-08-30T00:29:54;19.07;30.74
64833;HTU21D;51290;45.060;38.948;2023-08-30T00:32:19;19.05;30.82
64833;HTU21D;51290;45.060;38.948;2023-08-30T00:34:49;19.03;30.96
64833;HTU21D;51290;45.060;38.948;2023-08-30T00:37:15;19.02;30.90
64833;HTU21D;51290;45.060;38.948;2023-08-30T00:39:41;18.98;31.01
64833;HTU21D;51290;45.060;38.948;2023-08-30T00:42:07;18.96;31.06
64833;HTU21D;51290;45.060;38.948;2023-08-30T00:44:35;18.92;31.12
64833;HTU21D;51290;45.060;38.948;2023-08-30T00:47:02;18.88;31.16
64833;HTU21D;51290;45.060;38.948;2023-08-30T00:49:32;18.86;31.24
64833;HTU21D;51290;45.060;38.948;2023-08-30T00:52:05;18.82;31.28
64833;HTU21D;51290;45.060;38.948;2023-08-30T00:54:32;18.78;31.38
64833;HTU21D;51290;45.060;38.948;2023-08-30T00:57:00;18.77;31.46
64833;HTU21D;51290;45.060;38.948;2023-08-30T00:59:27;18.77;31.50
64833;HTU21D;51290;45.060;38.948;2023-08-30T01:01:55;18.74;31.48
64833;HTU21D;51290;45.060;38.948;2023-08-30T01:04:21;18.73;31.51
64833;HTU21D;51290;45.060;38.948;2023-08-30T01:06:49;18.71;31.54
64833;HTU21D;51290;45.060;38.948;2023-08-30T01:09:16;18.68;31.57
64833;HTU21D;51290;45.060;38.948;2023-08-30T01:11:50;18.62;31.67
64833;HTU21D;51290;45.060;38.948;2023-08-30T01:14:25;18.57;31.77
64833;HTU21D;51290;45.060;38.948;2023-08-30T01:16:52;18.53;31.83
64833;HTU21D;51290;45.060;38.948;2023-08-30T01:19:36;18.52;31.92
64833;HTU21D;51290;45.060;38.948;2023-08-30T01:22:18;18.50;32.15
64833;HTU21D;51290;45.060;38.948;2023-08-30T01:25:14;18.53;32.03
64833;HTU21D;51290;45.060;38.948;2023-08-30T01:27:43;18.54;31.96
64833;HTU21D;51290;45.060;38.948;2023-08-30T01:30:13;18.54;31.99
64833;HTU21D;51290;45.060;38.948;2023-08-30T01:32:40;18.55;31.98
64833;HTU21D;51290;45.060;38.948;2023-08-30T01:35:07;18.55;32.04
64833;HTU21D;51290;45.060;38.948;2023-08-30T01:37:34;18.54;32.05
64833;HTU21D;51290;45.060;38.948;2023-08-30T01:40:02;18.52;32.11
64833;HTU21D;51290;45.060;38.948;2023-08-30T01:42:31;18.50;32.20
64833;HTU21D;51290;45.060;38.948;2023-08-30T01:45:00;18.51;32.24
64833;HTU21D;51290;45.060;38.948;2023-08-30T01:47:28;18.51;32.22
64833;HTU21D;51290;45.060;38.948;2023-08-30T01:49:55;18.49;32.21
64833;HTU21D;51290;45.060;38.948;2023-08-30T01:52:23;18.47;32.28
64833;HTU21D;51290;45.060;38.948;2023-08-30T01:54:53;18.43;32.28
64833;HTU21D;51290;45.060;38.948;2023-08-30T01:57:19;18.41;32.33
64833;HTU21D;51290;45.060;38.948;2023-08-30T01:59:45;18.43;32.35
64833;HTU21D;51290;45.060;38.948;2023-08-30T02:02:11;18.42;32.35
64833;HTU21D;51290;45.060;38.948;2023-08-30T02:04:37;18.42;32.39
64833;HTU21D;51290;45.060;38.948;2023-08-30T02:07:10;18.40;32.40
64833;HTU21D;51290;45.060;38.948;2023-08-30T02:09:46;18.39;32.41
64833;HTU21D;51290;45.060;38.948;2023-08-30T02:12:15;18.38;32.46
64833;HTU21D;51290;45.060;38.948;2023-08-30T02:14:47;18.35;32.51
64833;HTU21D;51290;45.060;38.948;2023-08-30T02:17:17;18.33;32.54
64833;HTU21D;51290;45.060;38.948;2023-08-30T02:19:44;18.33;32.53
64833;HTU21D;51290;45.060;38.948;2023-08-30T02:22:11;18.30;32.55
64833;HTU21D;51290;45.060;38.948;2023-08-30T02:24:37;18.26;32.58
64833;HTU21D;51290;45.060;38.948;2023-08-30T02:27:04;18.24;32.80
64833;HTU21D;51290;45.060;38.948;2023-08-30T02:29:30;18.24;32.86
64833;HTU21D;51290;45.060;38.948;2023-08-30T02:31:56;18.25;32.81
64833;HTU21D;51290;45.060;38.948;2023-08-30T02:34:22;18.25;32.81
64833;HTU21D;51290;45.060;38.948;2023-08-30T02:36:48;18.21;32.84
64833;HTU21D;51290;45.060;38.948;2023-08-30T02:39:14;18.19;33.06
64833;HTU21D;51290;45.060;38.948;2023-08-30T02:41:41;18.18;33.14
64833;HTU21D;51290;45.060;38.948;2023-08-30T02:44:11;18.18;33.22
64833;HTU21D;51290;45.060;38.948;2023-08-30T02:46:37;18.19;33.24
64833;HTU21D;51290;45.060;38.948;2023-08-30T02:49:05;18.20;33.23
64833;HTU21D;51290;45.060;38.948;2023-08-30T02:51:31;18.19;33.29
64833;HTU21D;51290;45.060;38.948;2023-08-30T02:53:57;18.17;33.38
64833;HTU21D;51290;45.060;38.948;2023-08-30T02:56:23;18.20;33.53
64833;HTU21D;51290;45.060;38.948;2023-08-30T02:58:50;18.21;33.49
64833;HTU21D;51290;45.060;38.948;2023-08-30T03:01:16;18.21;33.47
64833;HTU21D;51290;45.060;38.948;2023-08-30T03:03:42;18.20;33.48
64833;HTU21D;51290;45.060;38.948;2023-08-30T03:06:08;18.20;33.47
64833;HTU21D;51290;45.060;38.948;2023-08-30T03:08:35;18.20;33.54
64833;HTU21D;51290;45.060;38.948;2023-08-30T03:11:12;18.21;33.63
64833;HTU21D;51290;45.060;38.948;2023-08-30T03:13:50;18.23;33.55
64833;HTU21D;51290;45.060;38.948;2023-08-30T03:16:17;18.25;33.57
64833;HTU21D;51290;45.060;38.948;2023-08-30T03:18:43;18.25;33.62
64833;HTU21D;51290;45.060;38.948;2023-08-30T03:21:11;18.27;33.64
64833;HTU21D;51290;45.060;38.948;2023-08-30T03:23:38;18.28;33.70
64833;HTU21D;51290;45.060;38.948;2023-08-30T03:26:14;18.32;33.75
64833;HTU21D;51290;45.060;38.948;2023-08-30T03:28:41;18.33;33.75
64833;HTU21D;51290;45.060;38.948;2023-08-30T03:31:28;18.38;33.75
64833;HTU21D;51290;45.060;38.948;2023-08-30T03:33:54;18.46;33.81
64833;HTU21D;51290;45.060;38.948;2023-08-30T03:36:21;18.55;33.80
64833;HTU21D;51290;45.060;38.948;2023-08-30T03:38:47;18.69;33.79
64833;HTU21D;51290;45.060;38.948;2023-08-30T03:41:13;18.97;33.69
64833;HTU21D;51290;45.060;38.948;2023-08-30T03:43:41;19.29;33.42
64833;HTU21D;51290;45.060;38.948;2023-08-30T03:46:08;19.51;33.25
64833;HTU21D;51290;45.060;38.948;2023-08-30T03:48:37;19.63;33.19
64833;HTU21D;51290;45.060;38.948;2023-08-30T03:51:03;19.74;33.18
64833;HTU21D;51290;45.060;38.948;2023-08-30T03:53:29;19.85;33.18
64833;HTU21D;51290;45.060;38.948;2023-08-30T03:55:58;20.01;33.12
64833;HTU21D;51290;45.060;38.948;2023-08-30T03:58:25;20.13;32.99
64833;HTU21D;51290;45.060;38.948;2023-08-30T04:00:51;20.22;32.86
64833;HTU21D;51290;45.060;38.948;2023-08-30T04:03:17;20.29;32.73
64833;HTU21D;51290;45.060;38.948;2023-08-30T04:05:43;20.33;32.66
64833;HTU21D;51290;45.060;38.948;2023-08-30T04:08:09;20.39;32.52
64833;HTU21D;51290;45.060;38.948;2023-08-30T04:10:39;20.41;32.47
64833;HTU21D;51290;45.060;38.948;2023-08-30T04:13:06;20.44;32.30
64833;HTU21D;51290;45.060;38.948;2023-08-30T04:15:37;20.43;32.16
64833;HTU21D;51290;45.060;38.948;2023-08-30T04:18:04;20.37;32.20
64833;HTU21D;51290;45.060;38.948;2023-08-30T04:20:31;20.35;32.28
64833;HTU21D;51290;45.060;38.948;2023-08-30T04:22:59;20.35;32.19
64833;HTU21D;51290;45.060;38.948;2023-08-30T04:25:31;20.34;32.20
64833;HTU21D;51290;45.060;38.948;2023-08-30T04:27:57;20.31;32.25
64833;HTU21D;51290;45.060;38.948;2023-08-30T04:30:24;20.32;32.34
64833;HTU21D;51290;45.060;38.948;2023-08-30T04:32:51;20.32;32.34
64833;HTU21D;51290;45.060;38.948;2023-08-30T04:35:17;20.32;32.32
64833;HTU21D;51290;45.060;38.948;2023-08-30T04:37:43;20.30;32.35
64833;HTU21D;51290;45.060;38.948;2023-08-30T04:40:10;20.30;32.41
64833;HTU21D;51290;45.060;38.948;2023-08-30T04:42:36;20.32;32.44
64833;HTU21D;51290;45.060;38.948;2023-08-30T04:45:03;20.33;32.46
64833;HTU21D;51290;45.060;38.948;2023-08-30T04:47:32;20.33;32.49
64833;HTU21D;51290;45.060;38.948;2023-08-30T04:49:59;20.34;32.64
64833;HTU21D;51290;45.060;38.948;2023-08-30T04:52:26;20.36;32.70
64833;HTU21D;51290;45.060;38.948;2023-08-30T04:54:54;20.42;32.77
64833;HTU21D;51290;45.060;38.948;2023-08-30T04:57:22;20.46;32.72
64833;HTU21D;51290;45.060;38.948;2023-08-30T04:59:49;20.49;32.75
64833;HTU21D;51290;45.060;38.948;2023-08-30T05:02:15;20.53;32.82
64833;HTU21D;51290;45.060;38.948;2023-08-30T05:04:51;20.59;32.83
64833;HTU21D;51290;45.060;38.948;2023-08-30T05:07:18;20.65;32.89
64833;HTU21D;51290;45.060;38.948;2023-08-30T05:09:45;20.73;32.93
64833;HTU21D;51290;45.060;38.948;2023-08-30T05:12:12;20.80;32.86
64833;HTU21D;51290;45.060;38.948;2023-08-30T05:14:38;20.87;32.79
64833;HTU21D;51290;45.060;38.948;2023-08-30T05:17:05;20.95;32.88
64833;HTU21D;51290;45.060;38.948;2023-08-30T05:19:31;21.03;32.72
64833;HTU21D;51290;45.060;38.948;2023-08-30T05:21:57;21.07;32.65
64833;HTU21D;51290;45.060;38.948;2023-08-30T05:24:26;21.10;32.61
64833;HTU21D;51290;45.060;38.948;2023-08-30T05:26:54;21.17;32.62
64833;HTU21D;51290;45.060;38.948;2023-08-30T05:29:24;21.20;32.64
64833;HTU21D;51290;45.060;38.948;2023-08-30T05:31:52;21.25;32.61
64833;HTU21D;51290;45.060;38.948;2023-08-30T05:34:23;21.31;32.65
64833;HTU21D;51290;45.060;38.948;2023-08-30T05:37:08;21.40;32.66
64833;HTU21D;51290;45.060;38.948;2023-08-30T05:39:51;21.50;32.57
64833;HTU21D;51290;45.060;38.948;2023-08-30T05:42:17;21.55;32.50
64833;HTU21D;51290;45.060;38.948;2023-08-30T05:44:43;21.62;32.48
64833;HTU21D;51290;45.060;38.948;2023-08-30T05:47:09;21.67;32.45
64833;HTU21D;51290;45.060;38.948;2023-08-30T05:49:40;21.79;32.63
64833;HTU21D;51290;45.060;38.948;2023-08-30T05:52:06;21.97;32.67
64833;HTU21D;51290;45.060;38.948;2023-08-30T05:54:33;22.14;32.41
64833;HTU21D;51290;45.060;38.948;2023-08-30T05:57:01;22.24;32.22
64833;HTU21D;51290;45.060;38.948;2023-08-30T05:59:27;22.26;32.13
64833;HTU21D;51290;45.060;38.948;2023-08-30T06:01:53;22.32;32.23
64833;HTU21D;51290;45.060;38.948;2023-08-30T06:04:19;22.41;32.28
64833;HTU21D;51290;45.060;38.948;2023-08-30T06:06:46;22.52;32.16
64833;HTU21D;51290;45.060;38.948;2023-08-30T06:09:12;22.55;32.02
64833;HTU21D;51290;45.060;38.948;2023-08-30T06:11:38;22.60;32.02
64833;HTU21D;51290;45.060;38.948;2023-08-30T06:14:05;22.63;32.02
64833;HTU21D;51290;45.060;38.948;2023-08-30T06:16:31;22.62;31.98
64833;HTU21D;51290;45.060;38.948;2023-08-30T06:18:57;22.58;32.02
64833;HTU21D;51290;45.060;38.948;2023-08-30T06:21:25;22.64;32.31
64833;HTU21D;51290;45.060;38.948;2023-08-30T06:23:51;22.75;32.35
64833;HTU21D;51290;45.060;38.948;2023-08-30T06:26:18;22.90;32.38
64833;HTU21D;51290;45.060;38.948;2023-08-30T06:28:44;23.05;32.23
64833;HTU21D;51290;45.060;38.948;2023-08-30T06:31:12;23.18;32.19
64833;HTU21D;51290;45.060;38.948;2023-08-30T06:33:38;23.34;32.24
64833;HTU21D;51290;45.060;38.948;2023-08-30T06:36:05;23.44;32.06
64833;HTU21D;51290;45.060;38.948;2023-08-30T06:38:31;23.56;31.99
64833;HTU21D;51290;45.060;38.948;2023-08-30T06:41:00;23.62;31.83
64833;HTU21D;51290;45.060;38.948;2023-08-30T06:43:26;23.69;31.67
64833;HTU21D;51290;45.060;38.948;2023-08-30T06:45:52;23.70;31.63
64833;HTU21D;51290;45.060;38.948;2023-08-30T06:48:18;23.68;31.67
64833;HTU21D;51290;45.060;38.948;2023-08-30T06:50:44;23.72;31.61
64833;HTU21D;51290;45.060;38.948;2023-08-30T06:53:10;23.77;31.61
64833;HTU21D;51290;45.060;38.948;2023-08-30T06:55:36;23.79;31.51
64833;HTU21D;51290;45.060;38.948;2023-08-30T06:58:03;23.83;31.39
64833;HTU21D;51290;45.060;38.948;2023-08-30T07:00:29;23.91;31.59
64833;HTU21D;51290;45.060;38.948;2023-08-30T07:02:55;24.03;31.51
64833;HTU21D;51290;45.060;38.948;2023-08-30T07:05:22;24.14;31.35
64833;HTU21D;51290;45.060;38.948;2023-08-30T07:07:48;24.23;31.26
64833;HTU21D;51290;45.060;38.948;2023-08-30T07:10:15;24.32;31.19
64833;HTU21D;51290;45.060;38.948;2023-08-30T07:12:41;24.43;31.08
64833;HTU21D;51290;45.060;38.948;2023-08-30T07:15:07;24.51;31.02
64833;HTU21D;51290;45.060;38.948;2023-08-30T07:17:33;24.57;30.93
64833;HTU21D;51290;45.060;38.948;2023-08-30T07:19:59;24.64;30.86
64833;HTU21D;51290;45.060;38.948;2023-08-30T07:22:26;24.72;30.88
64833;HTU21D;51290;45.060;38.948;2023-08-30T07:24:52;24.87;30.82
64833;HTU21D;51290;45.060;38.948;2023-08-30T07:27:18;24.99;30.70
64833;HTU21D;51290;45.060;38.948;2023-08-30T07:29:44;25.13;30.45
64833;HTU21D;51290;45.060;38.948;2023-08-30T07:32:11;25.19;30.36
64833;HTU21D;51290;45.060;38.948;2023-08-30T07:34:37;25.23;30.29
64833;HTU21D;51290;45.060;38.948;2023-08-30T07:37:04;25.31;30.35
64833;HTU21D;51290;45.060;38.948;2023-08-30T07:39:30;25.46;30.32
64833;HTU21D;51290;45.060;38.948;2023-08-30T07:41:56;25.64;30.29
64833;HTU21D;51290;45.060;38.948;2023-08-30T07:44:22;25.79;30.03
64833;HTU21D;51290;45.060;38.948;2023-08-30T07:46:48;25.87;29.90
64833;HTU21D;51290;45.060;38.948;2023-08-30T07:49:14;25.93;29.87
64833;HTU21D;51290;45.060;38.948;2023-08-30T07:51:40;26.03;29.99
64833;HTU21D;51290;45.060;38.948;2023-08-30T07:54:06;26.16;29.82
64833;HTU21D;51290;45.060;38.948;2023-08-30T07:56:32;26.24;29.73
64833;HTU21D;51290;45.060;38.948;2023-08-30T07:58:58;26.28;29.71
64833;HTU21D;51290;45.060;38.948;2023-08-30T08:01:24;26.33;29.80
64833;HTU21D;51290;45.060;38.948;2023-08-30T08:03:50;26.47;29.80
64833;HTU21D;51290;45.060;38.948;2023-08-30T08:06:16;26.54;29.74
64833;HTU21D;51290;45.060;38.948;2023-08-30T08:08:44;26.64;29.74
64833;HTU21D;51290;45.060;38.948;2023-08-30T08:11:10;26.71;29.65
64833;HTU21D;51290;45.060;38.948;2023-08-30T08:13:36;26.76;29.68
64833;HTU21D;51290;45.060;38.948;2023-08-30T08:16:03;26.77;29.71
64833;HTU21D;51290;45.060;38.948;2023-08-30T08:18:29;26.79;29.83
64833;HTU21D;51290;45.060;38.948;2023-08-30T08:20:55;26.82;29.92
64833;HTU21D;51290;45.060;38.948;2023-08-30T08:23:21;26.85;29.93
64833;HTU21D;51290;45.060;38.948;2023-08-30T08:25:47;26.87;29.92
64833;HTU21D;51290;45.060;38.948;2023-08-30T08:28:13;26.91;29.98
64833;HTU21D;51290;45.060;38.948;2023-08-30T08:30:39;26.94;30.03
64833;HTU21D;51290;45.060;38.948;2023-08-30T08:33:05;26.99;30.09
64833;HTU21D;51290;45.060;38.948;2023-08-30T08:35:31;27.05;30.09
64833;HTU21D;51290;45.060;38.948;2023-08-30T08:37:57;27.09;30.14
64833;HTU21D;51290;45.060;38.948;2023-08-30T08:40:23;27.15;30.24
64833;HTU21D;51290;45.060;38.948;2023-08-30T08:42:49;27.23;30.23
64833;HTU21D;51290;45.060;38.948;2023-08-30T08:45:21;27.27;30.18
64833;HTU21D;51290;45.060;38.948;2023-08-30T08:47:48;27.34;30.32
64833;HTU21D;51290;45.060;38.948;2023-08-30T08:50:14;27.39;30.17
64833;HTU21D;51290;45.060;38.948;2023-08-30T08:52:41;27.42;30.13
64833;HTU21D;51290;45.060;38.948;2023-08-30T08:55:07;27.46;30.17
64833;HTU21D;51290;45.060;38.948;2023-08-30T08:57:34;27.53;30.18
64833;HTU21D;51290;45.060;38.948;2023-08-30T09:00:00;27.58;30.00
64833;HTU21D;51290;45.060;38.948;2023-08-30T09:02:27;27.66;29.97
64833;HTU21D;51290;45.060;38.948;2023-08-30T09:04:54;27.74;29.79
64833;HTU21D;51290;45.060;38.948;2023-08-30T09:07:21;27.81;29.61
64833;HTU21D;51290;45.060;38.948;2023-08-30T09:09:47;27.88;29.69
64833;HTU21D;51290;45.060;38.948;2023-08-30T09:12:14;28.03;29.50
64833;HTU21D;51290;45.060;38.948;2023-08-30T09:14:40;28.16;29.26
64833;HTU21D;51290;45.060;38.948;2023-08-30T09:17:06;28.21;29.00
64833;HTU21D;51290;45.060;38.948;2023-08-30T09:19:32;28.28;28.92
64833;HTU21D;51290;45.060;38.948;2023-08-30T09:21:59;28.30;28.95
64833;HTU21D;51290;45.060;38.948;2023-08-30T09:24:25;28.35;28.91
64833;HTU21D;51290;45.060;38.948;2023-08-30T09:27:03;28.39;28.92
64833;HTU21D;51290;45.060;38.948;2023-08-30T09:29:29;28.41;28.91
64833;HTU21D;51290;45.060;38.948;2023-08-30T09:31:55;28.49;29.00
64833;HTU21D;51290;45.060;38.948;2023-08-30T09:34:25;28.61;28.97
64833;HTU21D;51290;45.060;38.948;2023-08-30T09:36:52;28.71;28.85
64833;HTU21D;51290;45.060;38.948;2023-08-30T09:39:18;28.77;28.71
64833;HTU21D;51290;45.060;38.948;2023-08-30T09:41:47;28.79;28.66
64833;HTU21D;51290;45.060;38.948;2023-08-30T09:44:18;28.80;28.68
64833;HTU21D;51290;45.060;38.948;2023-08-30T09:46:49;28.80;28.64
64833;HTU21D;51290;45.060;38.948;2023-08-30T09:49:23;28.79;28.66
64833;HTU21D;51290;45.060;38.948;2023-08-30T09:51:51;28.77;28.60
64833;HTU21D;51290;45.060;38.948;2023-08-30T09:54:22;28.73;28.52
64833;HTU21D;51290;45.060;38.948;2023-08-30T09:56:51;28.72;28.58
64833;HTU21D;51290;45.060;38.948;2023-08-30T09:59:23;28.70;28.68
64833;HTU21D;51290;45.060;38.948;2023-08-30T10:01:49;28.68;28.78
64833;HTU21D;51290;45.060;38.948;2023-08-30T10:04:19;28.71;28.81
64833;HTU21D;51290;45.060;38.948;2023-08-30T10:06:45;28.72;28.74
64833;HTU21D;51290;45.060;38.948;2023-08-30T10:09:12;28.75;28.72
64833;HTU21D;51290;45.060;38.948;2023-08-30T10:11:40;28.76;28.69
64833;HTU21D;51290;45.060;38.948;2023-08-30T10:14:07;28.78;28.69
64833;HTU21D;51290;45.060;38.948;2023-08-30T10:16:48;28.80;28.66
64833;HTU21D;51290;45.060;38.948;2023-08-30T10:19:16;28.83;28.52
64833;HTU21D;51290;45.060;38.948;2023-08-30T10:21:47;28.85;28.49
64833;HTU21D;51290;45.060;38.948;2023-08-30T10:24:19;28.85;28.42
64833;HTU21D;51290;45.060;38.948;2023-08-30T10:26:46;28.88;28.39
64833;HTU21D;51290;45.060;38.948;2023-08-30T10:29:16;28.90;28.36
64833;HTU21D;51290;45.060;38.948;2023-08-30T10:31:43;28.93;28.36
64833;HTU21D;51290;45.060;38.948;2023-08-30T10:34:17;28.97;28.19
64833;HTU21D;51290;45.060;38.948;2023-08-30T10:36:44;29.00;28.45
64833;HTU21D;51290;45.060;38.948;2023-08-30T10:39:14;29.04;28.42
64833;HTU21D;51290;45.060;38.948;2023-08-30T10:41:57;29.06;28.48
64833;HTU21D;51290;45.060;38.948;2023-08-30T10:44:23;29.11;28.39
64833;HTU21D;51290;45.060;38.948;2023-08-30T10:46:53;29.16;28.31
64833;HTU21D;51290;45.060;38.948;2023-08-30T10:49:20;29.19;28.24
64833;HTU21D;51290;45.060;38.948;2023-08-30T10:51:57;29.23;28.16
64833;HTU21D;51290;45.060;38.948;2023-08-30T10:54:24;29.28;28.12
64833;HTU21D;51290;45.060;38.948;2023-08-30T10:56:57;29.31;28.12
64833;HTU21D;51290;45.060;38.948;2023-08-30T10:59:26;29.34;28.16
64833;HTU21D;51290;45.060;38.948;2023-08-30T11:01:53;29.41;28.14
64833;HTU21D;51290;45.060;38.948;2023-08-30T11:04:21;29.47;28.10
64833;HTU21D;51290;45.060;38.948;2023-08-30T11:06:49;29.52;28.03
64833;HTU21D;51290;45.060;38.948;2023-08-30T11:09:17;29.58;28.00
64833;HTU21D;51290;45.060;38.948;2023-08-30T11:11:44;29.63;28.00
64833;HTU21D;51290;45.060;38.948;2023-08-30T11:14:12;29.67;28.02
64833;HTU21D;51290;45.060;38.948;2023-08-30T11:16:38;29.68;28.00
64833;HTU21D;51290;45.060;38.948;2023-08-30T11:19:06;29.66;27.97
64833;HTU21D;51290;45.060;38.948;2023-08-30T11:21:42;29.65;28.05
64833;HTU21D;51290;45.060;38.948;2023-08-30T11:24:08;29.62;28.12
64833;HTU21D;51290;45.060;38.948;2023-08-30T11:26:34;29.65;28.16
64833;HTU21D;51290;45.060;38.948;2023-08-30T11:29:07;29.67;28.12
64833;HTU21D;51290;45.060;38.948;2023-08-30T11:31:34;29.73;28.11
64833;HTU21D;51290;45.060;38.948;2023-08-30T11:34:01;29.75;28.11
64833;HTU21D;51290;45.060;38.948;2023-08-30T11:36:32;29.76;28.14
64833;HTU21D;51290;45.060;38.948;2023-08-30T11:39:00;29.79;28.13
64833;HTU21D;51290;45.060;38.948;2023-08-30T11:41:26;29.81;28.08
64833;HTU21D;51290;45.060;38.948;2023-08-30T11:43:53;29.87;28.01
64833;HTU21D;51290;45.060;38.948;2023-08-30T11:46:20;29.89;28.01
64833;HTU21D;51290;45.060;38.948;2023-08-30T11:48:48;29.91;28.08
64833;HTU21D;51290;45.060;38.948;2023-08-30T11:51:15;29.93;28.19
64833;HTU21D;51290;45.060;38.948;2023-08-30T11:53:41;29.94;28.11
64833;HTU21D;51290;45.060;38.948;2023-08-30T11:56:08;29.96;28.06
64833;HTU21D;51290;45.060;38.948;2023-08-30T11:58:36;30.01;28.00
64833;HTU21D;51290;45.060;38.948;2023-08-30T12:01:07;30.03;27.93
64833;HTU21D;51290;45.060;38.948;2023-08-30T12:03:33;30.06;27.87
64833;HTU21D;51290;45.060;38.948;2023-08-30T12:05:59;30.12;27.75
64833;HTU21D;51290;45.060;38.948;2023-08-30T12:08:27;30.17;27.55
64833;HTU21D;51290;45.060;38.948;2023-08-30T12:10:55;30.20;27.56
64833;HTU21D;51290;45.060;38.948;2023-08-30T12:13:25;30.20;27.57
64833;HTU21D;51290;45.060;38.948;2023-08-30T12:15:52;30.22;27.63
64833;HTU21D;51290;45.060;38.948;2023-08-30T12:18:25;30.24;27.63
64833;HTU21D;51290;45.060;38.948;2023-08-30T12:21:04;30.25;27.63
64833;HTU21D;51290;45.060;38.948;2023-08-30T12:23:36;30.27;27.53
64833;HTU21D;51290;45.060;38.948;2023-08-30T12:26:08;30.32;27.53
64833;HTU21D;51290;45.060;38.948;2023-08-30T12:28:39;30.34;27.52
64833;HTU21D;51290;45.060;38.948;2023-08-30T12:31:06;30.33;27.57
64833;HTU21D;51290;45.060;38.948;2023-08-30T12:33:35;30.35;27.52
64833;HTU21D;51290;45.060;38.948;2023-08-30T12:36:01;30.37;27.48
64833;HTU21D;51290;45.060;38.948;2023-08-30T12:38:29;30.41;27.50
64833;HTU21D;51290;45.060;38.948;2023-08-30T12:40:56;30.44;27.39
64833;HTU21D;51290;45.060;38.948;2023-08-30T12:43:23;30.48;27.34
64833;HTU21D;51290;45.060;38.948;2023-08-30T12:45:50;30.49;27.39
64833;HTU21D;51290;45.060;38.948;2023-08-30T12:48:17;30.49;27.54
64833;HTU21D;51290;45.060;38.948;2023-08-30T12:50:45;30.48;27.68
64833;HTU21D;51290;45.060;38.948;2023-08-30T12:53:11;30.49;27.73
64833;HTU21D;51290;45.060;38.948;2023-08-30T12:55:38;30.47;27.81
64833;HTU21D;51290;45.060;38.948;2023-08-30T12:58:07;30.47;27.89
64833;HTU21D;51290;45.060;38.948;2023-08-30T13:00:34;30.44;27.91
64833;HTU21D;51290;45.060;38.948;2023-08-30T13:03:01;30.44;27.81
64833;HTU21D;51290;45.060;38.948;2023-08-30T13:05:29;30.46;27.79
64833;HTU21D;51290;45.060;38.948;2023-08-30T13:08:00;30.49;27.77
64833;HTU21D;51290;45.060;38.948;2023-08-30T13:10:26;30.50;27.75
64833;HTU21D;51290;45.060;38.948;2023-08-30T13:12:52;30.52;27.89
64833;HTU21D;51290;45.060;38.948;2023-08-30T13:15:18;30.55;28.03
64833;HTU21D;51290;45.060;38.948;2023-08-30T13:17:44;30.56;28.10
64833;HTU21D;51290;45.060;38.948;2023-08-30T13:20:10;30.56;28.23
64833;HTU21D;51290;45.060;38.948;2023-08-30T13:22:36;30.55;28.42
64833;HTU21D;51290;45.060;38.948;2023-08-30T13:25:03;30.52;28.76
64833;HTU21D;51290;45.060;38.948;2023-08-30T13:27:29;30.49;28.90
64833;HTU21D;51290;45.060;38.948;2023-08-30T13:29:56;30.45;29.05
64833;HTU21D;51290;45.060;38.948;2023-08-30T13:32:22;30.42;29.14
64833;HTU21D;51290;45.060;38.948;2023-08-30T13:34:49;30.41;29.06
64833;HTU21D;51290;45.060;38.948;2023-08-30T13:37:15;30.39;29.03
64833;HTU21D;51290;45.060;38.948;2023-08-30T13:39:41;30.42;29.01
64833;HTU21D;51290;45.060;38.948;2023-08-30T13:42:07;30.45;28.97
64833;HTU21D;51290;45.060;38.948;2023-08-30T13:44:34;30.48;28.98
64833;HTU21D;51290;45.060;38.948;2023-08-30T13:47:07;30.50;29.03
64833;HTU21D;51290;45.060;38.948;2023-08-30T13:49:33;30.51;29.01
64833;HTU21D;51290;45.060;38.948;2023-08-30T13:51:59;30.53;29.00
64833;HTU21D;51290;45.060;38.948;2023-08-30T13:54:26;30.51;28.97
64833;HTU21D;51290;45.060;38.948;2023-08-30T13:56:57;30.51;28.97
64833;HTU21D;51290;45.060;38.948;2023-08-30T13:59:24;30.53;28.84
64833;HTU21D;51290;45.060;38.948;2023-08-30T14:01:50;30.54;28.77
64833;HTU21D;51290;45.060;38.948;2023-08-30T14:04:16;30.55;28.70
64833;HTU21D;51290;45.060;38.948;2023-08-30T14:06:42;30.56;28.72
64833;HTU21D;51290;45.060;38.948;2023-08-30T14:09:08;30.56;28.76
64833;HTU21D;51290;45.060;38.948;2023-08-30T14:11:35;30.56;28.77
64833;HTU21D;51290;45.060;38.948;2023-08-30T14:14:03;30.56;28.66
64833;HTU21D;51290;45.060;38.948;2023-08-30T14:16:29;30.57;28.68
64833;HTU21D;51290;45.060;38.948;2023-08-30T14:18:56;30.59;28.71
64833;HTU21D;51290;45.060;38.948;2023-08-30T14:21:26;30.60;28.70
64833;HTU21D;51290;45.060;38.948;2023-08-30T14:23:55;30.59;28.45
64833;HTU21D;51290;45.060;38.948;2023-08-30T14:26:21;30.60;28.26
64833;HTU21D;51290;45.060;38.948;2023-08-30T14:28:47;30.60;28.14
64833;HTU21D;51290;45.060;38.948;2023-08-30T14:31:13;30.60;27.87
64833;HTU21D;51290;45.060;38.948;2023-08-30T14:33:43;30.60;27.76
64833;HTU21D;51290;45.060;38.948;2023-08-30T14:36:13;30.62;27.63
64833;HTU21D;51290;45.060;38.948;2023-08-30T14:38:41;30.60;27.58
64833;HTU21D;51290;45.060;38.948;2023-08-30T14:41:07;30.61;27.50
64833;HTU21D;51290;45.060;38.948;2023-08-30T14:43:33;30.59;27.47
64833;HTU21D;51290;45.060;38.948;2023-08-30T14:46:05;30.60;27.36
64833;HTU21D;51290;45.060;38.948;2023-08-30T14:48:32;30.56;27.23
64833;HTU21D;51290;45.060;38.948;2023-08-30T14:50:59;30.54;27.18
64833;HTU21D;51290;45.060;38.948;2023-08-30T14:53:25;30.52;26.97
64833;HTU21D;51290;45.060;38.948;2023-08-30T14:55:54;30.50;26.75
64833;HTU21D;51290;45.060;38.948;2023-08-30T14:58:22;30.49;26.74
64833;HTU21D;51290;45.060;38.948;2023-08-30T15:00:48;30.46;26.80
64833;HTU21D;51290;45.060;38.948;2023-08-30T15:03:14;30.44;26.68
64833;HTU21D;51290;45.060;38.948;2023-08-30T15:05:41;30.40;26.62